Time;durP1;ratioP1;P1;durP2;ratioP2;P2;SDS_P1;SDS_P2;PMS_P1;PMS_P2;Temp;Humidity;BMP_temperature;BMP_pressure;BME280_temperature;BME280_humidity;BME280_pressure;Samples;Min_cycle;Max_cycle;Signal;HPM_P1;HPM_P2
2024/04/16 00:01:38;;;;;;;1.00;0.90;;;4.80;93.50;;;;;;5344873;26;20321;-65
2024/04/16 00:04:04;;;;;;;1.83;1.40;;;4.80;95.30;;;;;;5330826;26;20932;-64
2024/04/16 00:06:31;;;;;;;1.43;1.00;;;4.80;97.60;;;;;;5335653;26;20227;-64
2024/04/16 00:08:56;;;;;;;4.53;1.13;;;4.80;96.10;;;;;;5324543;26;20232;-67
2024/04/16 00:11:22;;;;;;;0.97;0.97;;;4.90;95.60;;;;;;5328638;26;21081;-64
2024/04/16 00:13:47;;;;;;;1.03;0.93;;;4.90;96.30;;;;;;5343082;26;20227;-64
2024/04/16 00:16:13;;;;;;;3.50;1.30;;;4.90;93.90;;;;;;5332083;26;20283;-65
2024/04/16 00:18:39;;;;;;;2.10;1.23;;;4.80;91.70;;;;;;5335194;26;20264;-65
2024/04/16 00:21:05;;;;;;;1.20;1.10;;;4.80;94.60;;;;;;5337459;26;20273;-65
2024/04/16 00:23:30;;;;;;;2.50;1.30;;;4.70;94.40;;;;;;5336176;26;20238;-64
2024/04/16 00:25:56;;;;;;;2.37;1.10;;;4.70;98.30;;;;;;5325962;26;20332;-64
2024/04/16 00:28:21;;;;;;;2.93;1.10;;;4.70;97.10;;;;;;5332533;26;20304;-65
2024/04/16 00:30:48;;;;;;;1.43;1.10;;;4.80;97.70;;;;;;5329651;26;20402;-64
2024/04/16 00:33:13;;;;;;;0.90;0.90;;;4.80;98.30;;;;;;5336997;26;20233;-65
2024/04/16 00:35:42;;;;;;;1.20;1.20;;;4.80;99.90;;;;;;5335664;26;20554;-65
2024/04/16 00:38:09;;;;;;;3.00;1.20;;;4.80;99.90;;;;;;5325624;26;20269;-63
2024/04/16 00:40:34;;;;;;;2.00;1.27;;;4.90;94.80;;;;;;5332590;26;20442;-65
2024/04/16 00:43:00;;;;;;;1.10;1.00;;;4.80;97.40;;;;;;5335090;26;21440;-66
2024/04/16 00:45:27;;;;;;;2.27;1.17;;;4.80;99.90;;;;;;5332372;26;20269;-64
2024/04/16 00:47:53;;;;;;;1.40;1.30;;;4.80;99.90;;;;;;5337005;26;20230;-64
2024/04/16 00:50:19;;;;;;;1.37;1.10;;;4.90;99.90;;;;;;5327574;26;20463;-64
2024/04/16 00:52:45;;;;;;;8.43;1.20;;;4.90;99.90;;;;;;5341964;26;20506;-63
2024/04/16 00:55:12;;;;;;;1.07;0.97;;;4.90;99.90;;;;;;5338602;26;21121;-64
2024/04/16 00:57:38;;;;;;;2.03;1.47;;;4.90;99.90;;;;;;5347982;26;20520;-64
2024/04/16 01:00:04;;;;;;;4.30;1.47;;;4.90;99.90;;;;;;5336880;26;20528;-64
2024/04/16 01:02:30;;;;;;;1.93;1.00;;;4.90;99.30;;;;;;5337000;26;20453;-66
2024/04/16 01:04:56;;;;;;;1.17;1.07;;;4.90;99.90;;;;;;5331435;26;20550;-64
2024/04/16 01:07:23;;;;;;;2.70;1.20;;;4.90;99.90;;;;;;5344555;26;20227;-64
2024/04/16 01:09:48;;;;;;;1.50;1.10;;;4.90;99.90;;;;;;5336206;26;20511;-63
2024/04/16 01:12:14;;;;;;;2.77;1.20;;;5.00;99.90;;;;;;5339771;26;21035;-64
2024/04/16 01:14:39;;;;;;;1.20;1.07;;;4.90;99.90;;;;;;5339372;26;20227;-67
2024/04/16 01:17:07;;;;;;;1.30;1.20;;;5.00;99.90;;;;;;5337329;26;20235;-64
2024/04/16 01:19:32;;;;;;;1.53;1.13;;;4.90;99.90;;;;;;5367740;26;20340;-64
2024/04/16 01:21:58;;;;;;;7.43;1.40;;;5.00;99.90;;;;;;5342573;26;20453;-65
2024/04/16 01:24:23;;;;;;;1.27;1.17;;;5.00;99.90;;;;;;5335306;26;20235;-64
2024/04/16 01:26:50;;;;;;;1.90;1.57;;;5.00;99.90;;;;;;5334949;26;20236;-66
2024/04/16 01:29:15;;;;;;;0.90;0.90;;;5.00;99.00;;;;;;5342602;26;20289;-65
2024/04/16 01:31:41;;;;;;;2.40;1.27;;;5.00;99.70;;;;;;5347171;26;21045;-65
2024/04/16 01:34:07;;;;;;;3.73;1.10;;;5.00;98.20;;;;;;5341797;26;20344;-64
2024/04/16 01:36:32;;;;;;;1.37;1.27;;;4.90;99.10;;;;;;5347048;26;20312;-64
2024/04/16 01:38:58;;;;;;;2.00;1.30;;;4.90;99.90;;;;;;5340087;26;20283;-66
2024/04/16 01:41:24;;;;;;;1.40;1.10;;;4.90;99.90;;;;;;5333171;26;20301;-65
2024/04/16 01:43:49;;;;;;;2.53;1.20;;;4.90;99.90;;;;;;5337219;26;20446;-66
2024/04/16 01:46:15;;;;;;;1.47;1.17;;;4.90;99.90;;;;;;5332633;26;20231;-64
2024/04/16 01:48:40;;;;;;;2.20;1.17;;;4.90;99.90;;;;;;5340098;26;20227;-64
2024/04/16 01:51:06;;;;;;;1.07;1.00;;;4.90;99.90;;;;;;5336828;26;20480;-63
2024/04/16 01:53:32;;;;;;;2.77;1.40;;;4.90;99.90;;;;;;5342275;26;20226;-65
2024/04/16 01:56:00;;;;;;;1.40;1.30;;;4.90;99.90;;;;;;5337628;26;20269;-64
2024/04/16 01:58:26;;;;;;;1.80;1.20;;;4.80;99.30;;;;;;5339068;26;20298;-66
2024/04/16 02:01:01;;;;;;;4.20;1.20;;;4.80;99.90;;;;;;5335300;26;20520;-64
2024/04/16 02:03:27;;;;;;;1.67;1.10;;;4.80;99.90;;;;;;5344305;26;20276;-64
2024/04/16 02:05:55;;;;;;;1.00;1.00;;;4.90;99.90;;;;;;5326835;26;20469;-64
2024/04/16 02:08:20;;;;;;;2.67;1.10;;;4.90;99.90;;;;;;5332212;26;20630;-64
2024/04/16 02:10:57;;;;;;;1.40;1.10;;;4.90;99.90;;;;;;5337927;26;20458;-65
2024/04/16 02:13:24;;;;;;;1.00;1.00;;;4.90;99.90;;;;;;5323387;26;20258;-65
2024/04/16 02:15:51;;;;;;;0.93;0.93;;;4.90;99.90;;;;;;5334447;26;20586;-64
2024/04/16 02:18:16;;;;;;;1.13;0.90;;;5.00;99.90;;;;;;5348272;26;20560;-64
2024/04/16 02:20:43;;;;;;;1.00;0.90;;;5.00;99.90;;;;;;5336031;26;20457;-65
2024/04/16 02:23:08;;;;;;;1.20;1.10;;;5.00;99.90;;;;;;5332902;26;20324;-64
2024/04/16 02:25:34;;;;;;;1.33;1.23;;;5.00;99.90;;;;;;5337142;26;21063;-64
2024/04/16 02:27:59;;;;;;;1.77;1.30;;;4.90;99.90;;;;;;5338000;26;20231;-64
2024/04/16 02:30:25;;;;;;;1.17;1.10;;;4.90;99.90;;;;;;5343761;26;20234;-65
2024/04/16 02:32:51;;;;;;;3.37;1.23;;;4.90;99.90;;;;;;5325232;26;20239;-64
2024/04/16 02:35:16;;;;;;;1.17;1.07;;;4.90;99.90;;;;;;5335566;26;20215;-64
2024/04/16 02:37:43;;;;;;;1.57;1.10;;;5.00;99.90;;;;;;5333698;26;20620;-64
2024/04/16 02:42:37;;;;;;;1.10;1.00;;;5.00;99.90;;;;;;5453053;21;20639;-61
2024/04/16 02:45:02;;;;;;;1.30;1.30;;;5.00;99.90;;;;;;5423390;26;20466;-61
2024/04/16 02:47:28;;;;;;;1.93;1.00;;;5.00;99.90;;;;;;5427471;26;20236;-59
2024/04/16 02:49:54;;;;;;;2.00;1.27;;;5.00;99.90;;;;;;5436923;26;20235;-61
2024/04/16 02:52:19;;;;;;;2.70;1.27;;;5.10;99.90;;;;;;5436074;26;20334;-61
2024/04/16 02:54:45;;;;;;;2.13;1.50;;;5.00;99.90;;;;;;5442855;26;20751;-60
2024/04/16 02:57:10;;;;;;;1.67;1.20;;;5.00;99.90;;;;;;5434950;26;20254;-60
2024/04/16 02:59:36;;;;;;;1.33;1.20;;;5.00;99.90;;;;;;5421592;26;20244;-60
2024/04/16 03:02:01;;;;;;;1.20;1.20;;;5.00;99.90;;;;;;5427027;26;20684;-61
2024/04/16 03:04:27;;;;;;;3.03;1.20;;;5.00;99.90;;;;;;5426260;26;20893;-61
2024/04/16 03:06:53;;;;;;;2.07;1.23;;;5.00;99.90;;;;;;5429760;26;20227;-60
2024/04/16 03:09:18;;;;;;;1.40;1.30;;;5.00;99.90;;;;;;5427308;26;20228;-61
2024/04/16 03:11:44;;;;;;;3.27;1.80;;;5.00;99.90;;;;;;5420994;26;20224;-61
2024/04/16 03:14:09;;;;;;;1.83;1.20;;;5.00;99.90;;;;;;5432963;26;20384;-61
2024/04/16 03:16:35;;;;;;;3.97;1.60;;;5.00;99.90;;;;;;5427465;26;20225;-61
2024/04/16 03:19:00;;;;;;;3.90;1.40;;;5.00;99.90;;;;;;5432545;26;20762;-62
2024/04/16 03:21:26;;;;;;;2.10;1.20;;;5.00;99.90;;;;;;5428781;26;20309;-63
2024/04/16 03:23:51;;;;;;;2.80;1.40;;;5.00;99.90;;;;;;5427077;26;20244;-62
2024/04/16 03:26:17;;;;;;;2.30;1.70;;;5.00;99.90;;;;;;5424641;26;20590;-62
2024/04/16 03:28:42;;;;;;;3.43;1.47;;;5.00;99.90;;;;;;5433695;26;20262;-62
2024/04/16 03:31:09;;;;;;;1.40;1.30;;;5.00;99.90;;;;;;5425032;26;20278;-63
2024/04/16 03:33:35;;;;;;;3.03;1.27;;;5.00;99.90;;;;;;5433466;26;20261;-63
2024/04/16 03:36:01;;;;;;;2.03;1.40;;;5.00;99.90;;;;;;5420539;26;20961;-62
2024/04/16 03:38:27;;;;;;;4.70;1.50;;;5.00;99.90;;;;;;5423221;26;21539;-63
2024/04/16 03:40:58;;;;;;;3.70;1.90;;;5.00;99.90;;;;;;5426936;26;20652;-63
2024/04/16 03:43:24;;;;;;;3.23;1.60;;;5.00;99.90;;;;;;5426735;26;20279;-63
2024/04/16 03:45:54;;;;;;;1.80;1.27;;;5.00;99.90;;;;;;5426183;26;20459;-60
2024/04/16 03:48:20;;;;;;;2.40;1.37;;;5.00;99.90;;;;;;5427700;26;20445;-63
2024/04/16 03:50:46;;;;;;;2.37;1.60;;;5.00;99.90;;;;;;5413469;26;20450;-62
2024/04/16 03:53:12;;;;;;;2.70;1.27;;;5.10;99.90;;;;;;5421751;26;21030;-62
2024/04/16 03:55:37;;;;;;;2.97;1.50;;;5.10;99.90;;;;;;5422948;26;20409;-62
2024/04/16 03:58:03;;;;;;;2.40;1.30;;;5.10;99.90;;;;;;5426965;26;20224;-61
2024/04/16 04:03:17;;;;;;;2.10;1.60;;;4.90;99.90;;;;;;5416268;26;20267;-60
2024/04/16 04:05:48;;;;;;;4.23;1.90;;;4.90;99.90;;;;;;5425931;26;20460;-60
2024/04/16 04:08:14;;;;;;;5.43;2.00;;;4.90;99.90;;;;;;5429565;26;20445;-60
2024/04/16 04:10:41;;;;;;;1.60;1.50;;;5.00;99.90;;;;;;5423572;26;20812;-59
2024/04/16 04:13:06;;;;;;;2.70;1.40;;;5.00;99.90;;;;;;5411820;26;20336;-59
2024/04/16 04:15:32;;;;;;;3.00;1.80;;;5.00;99.90;;;;;;5420823;26;20573;-59
2024/04/16 04:17:58;;;;;;;3.53;1.30;;;5.00;99.90;;;;;;5418181;26;20220;-59
2024/04/16 04:20:23;;;;;;;2.23;1.30;;;5.10;99.90;;;;;;5426088;26;20352;-60
2024/04/16 04:22:49;;;;;;;1.30;1.20;;;5.10;99.90;;;;;;5415632;26;20377;-59
2024/04/16 04:25:15;;;;;;;2.50;1.63;;;5.10;99.90;;;;;;5429615;26;20446;-60
2024/04/16 04:27:42;;;;;;;2.70;1.60;;;5.10;99.90;;;;;;5432432;26;20231;-60
2024/04/16 04:30:08;;;;;;;3.90;1.50;;;5.10;99.90;;;;;;5422134;26;20219;-59
2024/04/16 04:32:34;;;;;;;1.50;1.40;;;5.10;99.90;;;;;;5405444;26;21322;-58
2024/04/16 04:35:00;;;;;;;2.63;1.80;;;5.10;99.90;;;;;;5417509;26;20473;-62
2024/04/16 04:37:26;;;;;;;3.17;1.63;;;5.10;99.90;;;;;;5425211;26;20224;-61
2024/04/16 04:39:52;;;;;;;3.60;1.70;;;5.10;99.90;;;;;;5419754;26;20572;-60
2024/04/16 04:42:18;;;;;;;6.10;1.53;;;5.10;99.90;;;;;;5426810;26;21026;-60
2024/04/16 04:44:43;;;;;;;1.97;1.60;;;5.10;99.90;;;;;;5431990;26;20224;-61
2024/04/16 04:47:09;;;;;;;3.50;1.60;;;5.10;99.90;;;;;;5423445;26;20262;-60
2024/04/16 04:49:34;;;;;;;3.50;1.80;;;5.10;99.90;;;;;;5412123;26;20691;-61
2024/04/16 04:52:00;;;;;;;3.30;1.47;;;5.10;99.90;;;;;;5425944;26;20321;-62
2024/04/16 04:54:26;;;;;;;3.80;1.70;;;5.10;99.60;;;;;;5415012;26;20235;-58
2024/04/16 04:56:51;;;;;;;4.40;2.00;;;5.10;99.90;;;;;;5427239;26;20253;-61
2024/04/16 04:59:17;;;;;;;3.37;1.73;;;5.10;99.90;;;;;;5417373;26;20272;-61
2024/04/16 05:01:43;;;;;;;4.40;1.53;;;5.10;99.90;;;;;;5421601;26;20774;-61
2024/04/16 05:04:09;;;;;;;5.07;1.90;;;5.10;99.20;;;;;;5429499;26;20562;-58
2024/04/16 05:06:37;;;;;;;2.23;1.47;;;5.10;96.20;;;;;;5420029;26;20791;-60
2024/04/16 05:09:03;;;;;;;2.90;1.57;;;5.10;97.60;;;;;;5424717;26;20232;-60
2024/04/16 05:11:29;;;;;;;5.43;2.00;;;5.10;97.80;;;;;;5425063;26;20516;-60
2024/04/16 05:13:54;;;;;;;4.33;1.60;;;5.10;98.00;;;;;;5434031;26;20525;-60
2024/04/16 05:16:20;;;;;;;7.60;2.03;;;5.10;97.50;;;;;;5414696;26;20459;-61
2024/04/16 05:18:46;;;;;;;6.40;1.87;;;5.10;96.40;;;;;;5436365;26;20762;-61
2024/04/16 05:21:11;;;;;;;3.03;1.93;;;5.10;95.70;;;;;;5425801;26;20313;-58
2024/04/16 05:23:37;;;;;;;2.70;1.70;;;5.10;95.50;;;;;;5421883;26;20228;-60
2024/04/16 05:26:03;;;;;;;6.50;2.13;;;5.10;93.90;;;;;;5431500;26;20231;-59
2024/04/16 05:28:29;;;;;;;10.30;3.50;;;5.00;92.70;;;;;;5421328;26;20801;-60
2024/04/16 05:30:55;;;;;;;6.10;2.00;;;5.00;92.10;;;;;;5431124;26;20308;-60
2024/04/16 05:33:21;;;;;;;6.50;1.87;;;5.00;93.10;;;;;;5424777;26;20466;-60
2024/04/16 05:35:46;;;;;;;3.97;1.80;;;5.00;87.40;;;;;;5433518;26;20223;-60
2024/04/16 05:38:12;;;;;;;5.33;1.80;;;5.00;90.20;;;;;;5428779;26;20227;-61
2024/04/16 05:40:38;;;;;;;5.97;2.00;;;5.00;89.70;;;;;;5431842;26;20221;-60
2024/04/16 05:43:03;;;;;;;2.70;1.53;;;5.00;90.40;;;;;;5435368;26;20673;-61
2024/04/16 05:45:29;;;;;;;5.93;1.60;;;5.00;91.00;;;;;;5427960;26;20753;-60
2024/04/16 05:47:54;;;;;;;7.40;1.70;;;5.00;92.00;;;;;;5425421;26;20271;-60
2024/04/16 05:50:20;;;;;;;3.20;1.80;;;5.00;93.10;;;;;;5428528;26;20272;-61
2024/04/16 05:52:46;;;;;;;2.90;2.20;;;5.00;92.30;;;;;;5434074;26;20236;-60
2024/04/16 05:55:11;;;;;;;4.33;1.83;;;5.10;93.50;;;;;;5427777;26;20389;-61
2024/04/16 05:57:37;;;;;;;8.27;2.43;;;5.10;93.40;;;;;;5426157;26;20224;-61
2024/04/16 06:00:04;;;;;;;2.50;1.60;;;5.20;94.00;;;;;;5433364;26;20910;-60
2024/04/16 06:02:30;;;;;;;4.20;1.70;;;5.20;94.40;;;;;;5427935;26;20300;-61
2024/04/16 06:04:56;;;;;;;4.40;2.00;;;5.20;94.50;;;;;;5434928;26;20458;-60
2024/04/16 06:07:22;;;;;;;3.37;1.80;;;5.20;92.50;;;;;;5432262;26;20228;-61
2024/04/16 06:09:47;;;;;;;7.90;1.83;;;5.20;92.60;;;;;;5431937;26;20229;-60
2024/04/16 06:12:13;;;;;;;4.67;1.70;;;5.30;94.20;;;;;;5433921;26;20332;-61
2024/04/16 06:14:38;;;;;;;5.73;1.80;;;5.30;91.30;;;;;;5436336;26;20224;-61
2024/04/16 06:17:04;;;;;;;3.10;1.80;;;5.30;89.30;;;;;;5438588;26;20266;-61
2024/04/16 06:19:29;;;;;;;3.60;1.73;;;5.30;90.10;;;;;;5431721;26;20227;-61
2024/04/16 06:21:55;;;;;;;4.27;2.07;;;5.30;91.50;;;;;;5435171;26;20326;-61
2024/04/16 06:24:21;;;;;;;3.20;2.00;;;5.30;90.60;;;;;;5432793;26;20252;-61
2024/04/16 06:26:46;;;;;;;3.33;1.97;;;5.20;89.80;;;;;;5434193;26;20991;-59
2024/04/16 06:29:12;;;;;;;9.47;2.40;;;5.20;88.90;;;;;;5420057;26;20236;-61
2024/04/16 06:31:37;;;;;;;9.70;1.43;;;5.20;84.00;;;;;;5426214;26;20725;-61
2024/04/16 06:34:03;;;;;;;4.83;1.83;;;5.10;83.90;;;;;;5430403;26;20291;-60
2024/04/16 06:36:29;;;;;;;4.03;1.90;;;5.20;86.30;;;;;;5423250;26;20321;-62
2024/04/16 06:38:54;;;;;;;3.80;1.80;;;5.20;83.40;;;;;;5434130;26;20268;-62
2024/04/16 06:41:20;;;;;;;4.10;1.93;;;5.40;88.10;;;;;;5428443;26;20248;-61
2024/04/16 06:43:46;;;;;;;4.67;1.70;;;5.50;88.00;;;;;;5435430;26;20604;-62
2024/04/16 06:46:11;;;;;;;8.43;1.70;;;5.60;85.50;;;;;;5434885;26;20265;-59
2024/04/16 06:48:37;;;;;;;5.83;1.90;;;5.60;78.20;;;;;;5434380;26;20271;-60
2024/04/16 06:51:03;;;;;;;10.70;1.87;;;5.60;75.70;;;;;;5428385;26;20235;-60
2024/04/16 06:53:28;;;;;;;7.00;1.83;;;5.50;74.00;;;;;;5424372;26;20227;-60
2024/04/16 06:55:58;;;;;;;3.53;1.80;;;5.50;76.40;;;;;;5412869;26;20277;-59
2024/04/16 06:58:24;;;;;;;9.03;1.70;;;5.60;72.70;;;;;;5418455;26;20290;-61
2024/04/16 07:00:50;;;;;;;3.40;1.90;;;5.50;72.50;;;;;;5430215;26;20474;-60
2024/04/16 07:03:15;;;;;;;4.87;1.50;;;5.50;71.10;;;;;;5417754;26;20240;-60
2024/04/16 07:05:41;;;;;;;9.80;1.97;;;5.50;70.70;;;;;;5432317;26;20721;-60
2024/04/16 07:08:07;;;;;;;4.33;1.70;;;5.50;69.80;;;;;;5424447;26;20293;-61
2024/04/16 07:10:32;;;;;;;8.37;2.07;;;5.60;69.10;;;;;;5426216;26;20348;-60
2024/04/16 07:12:58;;;;;;;6.03;2.00;;;5.60;66.70;;;;;;5429864;26;20267;-61
2024/04/16 07:15:24;;;;;;;5.60;1.90;;;5.70;68.10;;;;;;5436772;26;20439;-60
2024/04/16 07:17:49;;;;;;;5.03;1.70;;;5.80;68.40;;;;;;5430070;26;20864;-60
2024/04/16 07:20:15;;;;;;;5.60;2.27;;;6.00;66.40;;;;;;5431551;26;20224;-60
2024/04/16 07:22:41;;;;;;;6.40;2.13;;;6.00;65.60;;;;;;5430005;26;20275;-60
2024/04/16 07:25:06;;;;;;;8.87;2.10;;;6.10;66.00;;;;;;5430608;26;20265;-60
2024/04/16 07:27:32;;;;;;;4.17;2.07;;;6.20;65.50;;;;;;5433649;26;20730;-60
2024/04/16 07:29:57;;;;;;;5.33;1.73;;;6.20;65.20;;;;;;5430256;26;20232;-61
2024/04/16 07:32:23;;;;;;;7.37;2.27;;;6.30;65.30;;;;;;5429876;26;20254;-60
2024/04/16 07:34:49;;;;;;;3.43;1.63;;;6.30;64.50;;;;;;5433758;26;20215;-60
2024/04/16 07:37:14;;;;;;;4.00;1.60;;;6.40;63.20;;;;;;5428437;26;20333;-60
2024/04/16 07:39:40;;;;;;;4.67;1.83;;;6.30;62.00;;;;;;5426408;26;20305;-60
2024/04/16 07:42:05;;;;;;;7.93;1.80;;;6.40;63.40;;;;;;5435824;26;20274;-60
2024/04/16 07:44:31;;;;;;;7.10;1.57;;;6.50;62.60;;;;;;5433752;26;20297;-59
2024/04/16 07:46:59;;;;;;;3.50;1.80;;;6.50;62.10;;;;;;5434863;26;20254;-60
2024/04/16 07:49:25;;;;;;;9.40;1.80;;;6.60;60.20;;;;;;5415466;26;20309;-61
2024/04/16 07:51:50;;;;;;;4.37;1.40;;;6.60;58.20;;;;;;5427456;26;20449;-60
2024/04/16 07:54:16;;;;;;;4.40;1.40;;;6.60;57.90;;;;;;5429350;26;20228;-61
2024/04/16 07:56:41;;;;;;;4.90;1.30;;;6.70;58.40;;;;;;5428222;26;20217;-60
2024/04/16 07:59:07;;;;;;;3.33;1.50;;;6.70;57.20;;;;;;5436555;26;20262;-60
2024/04/16 08:01:32;;;;;;;1.63;1.40;;;6.70;56.10;;;;;;5429050;26;20262;-60
2024/04/16 08:03:58;;;;;;;7.07;1.70;;;6.80;57.40;;;;;;5427568;26;20917;-61
2024/04/16 08:06:24;;;;;;;3.33;1.60;;;6.80;57.00;;;;;;5428244;26;20232;-60
2024/04/16 08:08:51;;;;;;;3.40;1.40;;;6.80;56.70;;;;;;5426102;26;20232;-61
2024/04/16 08:11:16;;;;;;;3.90;1.67;;;6.90;57.10;;;;;;5424500;26;20759;-60
2024/04/16 08:13:42;;;;;;;5.20;1.47;;;7.00;57.10;;;;;;5427425;26;20528;-60
2024/04/16 08:16:08;;;;;;;2.50;1.23;;;7.10;56.40;;;;;;5424300;26;22710;-61
2024/04/16 08:18:34;;;;;;;2.40;1.30;;;7.30;56.90;;;;;;5424279;26;20271;-62
2024/04/16 08:21:00;;;;;;;3.73;1.90;;;7.30;56.30;;;;;;5435708;26;20575;-60
2024/04/16 08:23:25;;;;;;;3.17;1.77;;;7.30;54.40;;;;;;5432815;26;20764;-59
2024/04/16 08:26:04;;;;;;;5.00;2.10;;;7.30;55.20;;;;;;5432231;26;20236;-60
2024/04/16 08:28:30;;;;;;;5.40;1.70;;;7.40;55.00;;;;;;5431431;26;20231;-61
2024/04/16 08:31:01;;;;;;;5.00;1.40;;;7.40;55.30;;;;;;5430495;26;20450;-60
2024/04/16 08:33:27;;;;;;;2.97;1.57;;;7.50;54.50;;;;;;5430674;26;20542;-61
2024/04/16 08:35:53;;;;;;;2.97;1.40;;;7.50;53.60;;;;;;5423965;26;20481;-61
2024/04/16 08:38:19;;;;;;;4.03;1.70;;;7.50;53.40;;;;;;5429839;26;20731;-61
2024/04/16 08:40:45;;;;;;;7.83;1.57;;;7.50;53.00;;;;;;5432611;26;20353;-60
2024/04/16 08:43:11;;;;;;;2.13;1.50;;;7.40;54.00;;;;;;5449804;21;21226;-62
2024/04/16 08:45:37;;;;;;;2.10;1.60;;;7.50;53.90;;;;;;5435826;26;20239;-64
2024/04/16 08:48:04;;;;;;;1.60;1.10;;;7.60;54.00;;;;;;5433848;26;20559;-65
2024/04/16 08:50:32;;;;;;;1.50;1.40;;;7.60;52.90;;;;;;5429513;26;20572;-64
2024/04/16 08:52:58;;;;;;;2.60;1.10;;;7.50;53.50;;;;;;5420862;26;20509;-65
2024/04/16 08:55:29;;;;;;;2.00;1.30;;;7.50;53.00;;;;;;5404707;26;20570;-64
2024/04/16 08:57:55;;;;;;;1.67;1.20;;;7.50;53.90;;;;;;5402238;26;20515;-64
2024/04/16 09:00:22;;;;;;;5.60;1.77;;;7.60;55.20;;;;;;5406771;26;20442;-64
2024/04/16 09:02:50;;;;;;;8.13;1.30;;;7.80;53.70;;;;;;5407477;26;20505;-65
2024/04/16 09:05:17;;;;;;;3.70;1.50;;;7.80;53.90;;;;;;5405433;26;20518;-65
2024/04/16 09:07:43;;;;;;;1.63;1.50;;;7.90;54.10;;;;;;5407956;26;20873;-66
2024/04/16 09:10:12;;;;;;;2.70;1.20;;;8.10;54.00;;;;;;5404993;26;20454;-65
2024/04/16 09:12:41;;;;;;;3.57;1.30;;;8.20;54.10;;;;;;5409964;26;20454;-65
2024/04/16 09:15:09;;;;;;;4.90;1.30;;;8.40;54.30;;;;;;5412485;26;20931;-65
2024/04/16 09:17:35;;;;;;;1.20;1.10;;;8.50;54.80;;;;;;5410230;26;20513;-64
2024/04/16 09:20:00;;;;;;;4.50;1.37;;;8.60;53.80;;;;;;5411563;26;20458;-64
2024/04/16 09:22:26;;;;;;;2.20;1.10;;;8.60;53.70;;;;;;5406343;26;20229;-65
2024/04/16 09:24:52;;;;;;;3.27;1.00;;;8.60;53.40;;;;;;5408335;26;20349;-64
2024/04/16 09:27:17;;;;;;;2.70;1.20;;;8.70;53.60;;;;;;5407071;26;20548;-64
2024/04/16 09:29:44;;;;;;;3.97;1.23;;;8.80;53.00;;;;;;5403236;26;20323;-64
2024/04/16 09:32:10;;;;;;;1.90;1.10;;;8.70;52.50;;;;;;5410696;26;20259;-65
2024/04/16 09:34:42;;;;;;;4.63;1.77;;;8.50;50.60;;;;;;5410331;26;20443;-66
2024/04/16 09:37:07;;;;;;;2.80;1.30;;;8.30;50.90;;;;;;5409876;26;20228;-65
2024/04/16 09:39:33;;;;;;;6.10;3.33;;;8.20;51.10;;;;;;5404438;26;20526;-64
2024/04/16 09:41:59;;;;;;;3.17;1.73;;;8.20;51.70;;;;;;5407697;26;20288;-66
2024/04/16 09:44:26;;;;;;;2.10;1.00;;;8.20;52.10;;;;;;5410364;26;20221;-66
2024/04/16 09:46:53;;;;;;;3.43;1.67;;;8.20;52.20;;;;;;5406344;26;20462;-65
2024/04/16 09:49:19;;;;;;;3.03;1.40;;;8.30;51.20;;;;;;5407538;26;20454;-66
2024/04/16 09:51:47;;;;;;;4.40;1.77;;;8.40;51.30;;;;;;5399740;26;20501;-66
2024/04/16 09:54:15;;;;;;;1.90;1.20;;;8.50;51.60;;;;;;5407166;26;20446;-64
2024/04/16 09:56:43;;;;;;;4.03;1.40;;;8.60;50.40;;;;;;5410549;26;21068;-64
2024/04/16 09:59:10;;;;;;;2.30;1.60;;;8.70;50.90;;;;;;5408562;26;20568;-65
2024/04/16 10:01:37;;;;;;;5.83;1.97;;;8.90;50.90;;;;;;5409521;26;21094;-64
2024/04/16 10:04:03;;;;;;;3.10;1.70;;;9.00;49.70;;;;;;5407052;26;20456;-64
2024/04/16 10:06:28;;;;;;;15.33;2.27;;;9.00;49.20;;;;;;5405992;26;20468;-65
2024/04/16 10:08:54;;;;;;;2.80;1.50;;;9.10;49.60;;;;;;5406700;26;20229;-66
2024/04/16 10:11:21;;;;;;;6.90;1.63;;;9.10;48.70;;;;;;5407140;26;20237;-65
2024/04/16 10:13:47;;;;;;;3.67;1.70;;;9.30;49.90;;;;;;5407771;26;20302;-65
2024/04/16 10:16:15;;;;;;;4.73;1.47;;;9.50;50.10;;;;;;5410273;26;20438;-65
2024/04/16 10:19:03;;;;;;;4.20;1.50;;;9.70;50.40;;;;;;5409123;26;20879;-66
2024/04/16 10:21:38;;;;;;;6.20;1.60;;;9.80;49.30;;;;;;5394735;26;20497;-65
2024/04/16 10:24:07;;;;;;;1.83;1.33;;;9.80;49.80;;;;;;5401952;26;20503;-65
2024/04/16 10:26:42;;;;;;;9.97;2.33;;;9.70;49.50;;;;;;5404399;26;20490;-64
2024/04/16 10:29:23;;;;;;;4.67;1.47;;;9.60;48.80;;;;;;5404268;26;20522;-65
2024/04/16 10:31:53;;;;;;;6.10;1.80;;;9.60;48.00;;;;;;5404507;26;21015;-63
2024/04/16 10:34:26;;;;;;;2.60;1.47;;;9.40;49.00;;;;;;5406020;26;20797;-64
2024/04/16 10:36:55;;;;;;;4.03;1.30;;;9.40;49.20;;;;;;5400739;26;20447;-65
2024/04/16 10:39:28;;;;;;;1.63;1.30;;;9.30;48.40;;;;;;5406166;26;20552;-65
2024/04/16 10:41:56;;;;;;;3.13;1.33;;;9.10;48.90;;;;;;5405523;26;21097;-65
2024/04/16 10:44:22;;;;;;;1.53;1.23;;;9.10;49.70;;;;;;5404757;26;20613;-64
2024/04/16 10:46:49;;;;;;;6.13;1.50;;;9.10;49.90;;;;;;5407293;26;20932;-65
2024/04/16 10:49:15;;;;;;;7.00;1.37;;;9.00;50.40;;;;;;5403125;26;20522;-65
2024/04/16 10:51:41;;;;;;;3.93;1.60;;;9.00;50.60;;;;;;5402169;26;20447;-64
2024/04/16 10:54:11;;;;;;;5.97;1.57;;;9.00;50.60;;;;;;5407147;26;20264;-66
2024/04/16 10:56:37;;;;;;;3.77;1.53;;;9.00;50.70;;;;;;5432887;26;20276;-65
2024/04/16 10:59:07;;;;;;;8.37;1.60;;;9.10;50.60;;;;;;5408213;26;20474;-64
2024/04/16 11:01:33;;;;;;;3.00;1.50;;;9.20;50.50;;;;;;5407930;26;21060;-65
2024/04/16 11:04:17;;;;;;;3.90;1.37;;;9.30;49.90;;;;;;5404190;26;20454;-65
2024/04/16 11:06:43;;;;;;;4.63;1.50;;;9.30;49.80;;;;;;5408885;26;20514;-65
2024/04/16 11:09:13;;;;;;;6.53;1.70;;;9.30;50.20;;;;;;5396019;26;21027;-66
2024/04/16 11:11:39;;;;;;;3.03;1.60;;;9.30;50.80;;;;;;5406570;26;20505;-66
2024/04/16 11:14:07;;;;;;;2.37;1.73;;;9.30;50.80;;;;;;5406398;26;20486;-65
2024/04/16 11:16:33;;;;;;;4.43;1.20;;;9.20;50.90;;;;;;5405098;26;20565;-65
2024/04/16 11:19:00;;;;;;;7.63;1.30;;;9.20;51.60;;;;;;5405093;26;20458;-65
2024/04/16 11:21:29;;;;;;;4.50;1.40;;;9.20;50.90;;;;;;5403988;26;20908;-66
2024/04/16 11:23:56;;;;;;;5.40;1.50;;;9.10;50.30;;;;;;5405028;26;20601;-67
2024/04/16 11:26:22;;;;;;;1.63;1.53;;;9.00;50.90;;;;;;5403885;26;20869;-65
2024/04/16 11:28:49;;;;;;;2.67;1.30;;;9.00;50.80;;;;;;5397389;26;20463;-65
2024/04/16 11:31:15;;;;;;;2.40;1.20;;;9.00;51.20;;;;;;5406432;26;20728;-64
2024/04/16 11:33:41;;;;;;;3.43;1.37;;;9.00;51.70;;;;;;5402933;26;20483;-65
2024/04/16 11:36:10;;;;;;;2.20;1.50;;;9.00;51.20;;;;;;5404423;26;20297;-65
2024/04/16 11:38:39;;;;;;;7.40;1.50;;;9.00;52.50;;;;;;5402614;26;20333;-65
2024/04/16 11:41:04;;;;;;;4.80;1.60;;;9.00;52.50;;;;;;5407195;26;21218;-66
2024/04/16 11:43:34;;;;;;;3.40;1.30;;;9.00;52.60;;;;;;5403212;26;20511;-66
2024/04/16 11:46:04;;;;;;;2.53;1.10;;;9.00;52.80;;;;;;5408674;26;20225;-66
2024/04/16 11:48:33;;;;;;;1.80;1.13;;;9.10;52.60;;;;;;5406591;26;20569;-65
2024/04/16 11:50:58;;;;;;;4.80;1.20;;;9.00;51.80;;;;;;5405921;26;20688;-65
2024/04/16 11:53:24;;;;;;;3.77;1.30;;;9.00;52.60;;;;;;5406706;26;21064;-65
2024/04/16 11:55:50;;;;;;;6.53;1.40;;;9.30;52.70;;;;;;5404115;26;20225;-65
2024/04/16 11:58:16;;;;;;;3.80;1.33;;;9.80;52.70;;;;;;5404895;26;20304;-65
2024/04/16 12:00:42;;;;;;;2.17;1.20;;;10.00;49.70;;;;;;5408133;26;20779;-65
2024/04/16 12:03:07;;;;;;;3.17;1.40;;;10.10;49.80;;;;;;5409004;26;20470;-65
2024/04/16 12:05:33;;;;;;;2.43;1.30;;;10.10;49.40;;;;;;5405133;26;20329;-66
2024/04/16 12:07:59;;;;;;;1.30;1.00;;;10.00;49.60;;;;;;5405416;26;20229;-65
2024/04/16 12:10:27;;;;;;;1.00;1.00;;;9.90;50.00;;;;;;5403586;26;20506;-66
2024/04/16 12:12:56;;;;;;;1.40;1.30;;;9.70;49.30;;;;;;5405764;26;20233;-66
2024/04/16 12:15:22;;;;;;;4.87;1.67;;;9.60;50.00;;;;;;5407481;26;21004;-65
2024/04/16 12:17:48;;;;;;;4.90;1.40;;;9.40;49.90;;;;;;5404089;26;20481;-65
2024/04/16 12:20:13;;;;;;;3.23;1.27;;;9.30;50.20;;;;;;5398652;26;20573;-65
2024/04/16 12:22:39;;;;;;;1.50;1.03;;;9.30;51.00;;;;;;5407790;26;20267;-66
2024/04/16 12:25:05;;;;;;;1.73;1.10;;;9.20;51.00;;;;;;5399714;26;20337;-65
2024/04/16 12:27:31;;;;;;;3.87;1.33;;;9.20;50.80;;;;;;5401923;26;20264;-65
2024/04/16 12:29:56;;;;;;;2.03;1.00;;;9.20;51.10;;;;;;5404534;26;20275;-65
2024/04/16 12:32:23;;;;;;;3.27;1.20;;;9.10;51.30;;;;;;5404100;26;20453;-65
2024/04/16 12:34:48;;;;;;;3.37;1.30;;;9.10;51.20;;;;;;5404820;26;20236;-65
2024/04/16 12:37:14;;;;;;;2.20;1.20;;;9.00;50.20;;;;;;5407969;26;20450;-66
2024/04/16 12:39:40;;;;;;;1.17;1.10;;;9.00;51.00;;;;;;5404478;26;20271;-66
2024/04/16 12:42:05;;;;;;;1.63;1.20;;;9.00;51.00;;;;;;5407377;26;20297;-65
2024/04/16 12:44:31;;;;;;;2.93;1.13;;;8.90;51.00;;;;;;5408648;26;20232;-66
2024/04/16 12:46:56;;;;;;;2.70;1.30;;;8.90;52.10;;;;;;5409599;26;20220;-65
2024/04/16 12:49:23;;;;;;;1.70;1.40;;;8.90;51.80;;;;;;5407722;26;20692;-66
2024/04/16 12:51:49;;;;;;;1.83;1.20;;;9.00;52.00;;;;;;5411218;26;20224;-64
2024/04/16 12:54:15;;;;;;;4.30;1.37;;;9.10;52.20;;;;;;5408515;26;20502;-65
2024/04/16 12:56:40;;;;;;;1.30;0.97;;;9.10;52.00;;;;;;5407925;26;20455;-65
2024/04/16 12:59:06;;;;;;;3.50;1.53;;;9.10;52.30;;;;;;5406955;26;20220;-66